Time;durP1;ratioP1;P1;durP2;ratioP2;P2;SDS_P1;SDS_P2;PMS_P1;PMS_P2;Temp;Humidity;BMP_temperature;BMP_pressure;BME280_temperature;BME280_humidity;BME280_pressure;Samples;Min_cycle;Max_cycle;Signal;HPM_P1;HPM_P2
2022/07/24 00:00:23;;;;;;;30.85;15.35;;;15.30;99.90;;;;;;8248544;28;20037;-81
2022/07/24 00:04:24;;;;;;;29.85;12.85;;;15.20;99.90;;;;;;8259904;28;20040;-81
2022/07/24 00:08:24;;;;;;;31.38;14.60;;;15.20;99.90;;;;;;8259978;28;20110;-81
2022/07/24 00:12:25;;;;;;;44.75;15.60;;;15.00;99.90;;;;;;8259811;28;20030;-82
2022/07/24 00:16:25;;;;;;;21.98;15.93;;;15.10;99.90;;;;;;8260327;28;20073;-81
2022/07/24 00:20:26;;;;;;;18.20;14.50;;;15.20;99.90;;;;;;8259240;28;20573;-81
2022/07/24 00:24:26;;;;;;;21.52;15.52;;;15.20;99.90;;;;;;8261341;28;20042;-81
2022/07/24 00:28:27;;;;;;;20.25;15.68;;;15.20;99.90;;;;;;8260520;28;20030;-81
2022/07/24 00:32:27;;;;;;;20.45;16.25;;;15.30;99.90;;;;;;8261001;28;20073;-81
2022/07/24 00:36:28;;;;;;;22.08;15.35;;;15.20;99.90;;;;;;8263171;28;20481;-81
2022/07/24 00:40:29;;;;;;;20.50;14.30;;;15.10;99.90;;;;;;8265586;28;20026;-81
2022/07/24 00:44:30;;;;;;;17.27;13.13;;;15.20;99.90;;;;;;8259759;28;20050;-81
2022/07/24 00:48:31;;;;;;;19.65;12.85;;;15.20;99.90;;;;;;8260719;28;20026;-81
2022/07/24 00:52:32;;;;;;;21.50;13.45;;;15.20;99.90;;;;;;8265408;28;20026;-80
2022/07/24 00:56:33;;;;;;;28.58;12.90;;;15.10;99.90;;;;;;8263890;28;20080;-80
2022/07/24 01:00:34;;;;;;;25.95;12.20;;;15.10;99.90;;;;;;8256159;28;20080;-80
2022/07/24 01:04:34;;;;;;;30.73;13.35;;;14.90;99.90;;;;;;8252248;28;20155;-81
2022/07/24 01:08:36;;;;;;;23.30;12.70;;;14.90;99.90;;;;;;8281565;28;20058;-80
2022/07/24 01:12:38;;;;;;;29.60;12.98;;;14.80;99.90;;;;;;8265852;28;20128;-80
2022/07/24 01:16:38;;;;;;;20.25;11.13;;;14.70;99.90;;;;;;8266326;28;20638;-81
2022/07/24 01:20:39;;;;;;;17.33;11.93;;;14.60;99.90;;;;;;8264340;28;20027;-80
2022/07/24 01:24:40;;;;;;;20.92;14.27;;;14.50;99.90;;;;;;8264814;28;20490;-81
2022/07/24 01:28:40;;;;;;;27.88;14.05;;;14.40;99.90;;;;;;8264517;28;20034;-81
2022/07/24 01:32:41;;;;;;;33.10;14.63;;;14.60;99.90;;;;;;8265338;28;20533;-81
2022/07/24 01:36:42;;;;;;;24.90;15.88;;;14.60;99.90;;;;;;8265493;28;20022;-80
2022/07/24 01:40:43;;;;;;;25.73;15.02;;;14.80;99.90;;;;;;8265033;28;20029;-81
2022/07/24 01:44:43;;;;;;;23.42;14.13;;;14.70;99.90;;;;;;8263783;28;20363;-80
2022/07/24 01:48:44;;;;;;;23.70;13.13;;;14.80;99.90;;;;;;8263033;28;20494;-80
2022/07/24 01:52:44;;;;;;;34.85;13.52;;;14.70;99.90;;;;;;8257037;28;20039;-82
2022/07/24 01:56:45;;;;;;;32.30;13.50;;;14.50;99.90;;;;;;8244746;28;20039;-80
2022/07/24 02:00:46;;;;;;;21.48;12.73;;;14.40;99.90;;;;;;8261123;28;20165;-81
2022/07/24 02:04:47;;;;;;;22.63;13.27;;;14.50;99.90;;;;;;8263668;28;20037;-81
2022/07/24 02:08:47;;;;;;;54.85;14.90;;;14.40;99.90;;;;;;8263546;28;20026;-81
2022/07/24 02:12:48;;;;;;;46.08;13.10;;;14.30;99.90;;;;;;8263259;28;20057;-81
2022/07/24 02:16:48;;;;;;;34.05;14.68;;;14.30;99.90;;;;;;8263615;28;20026;-81
2022/07/24 02:20:49;;;;;;;25.38;15.10;;;14.30;99.90;;;;;;8262585;28;20065;-81
2022/07/24 02:24:49;;;;;;;35.92;16.52;;;14.20;99.90;;;;;;8263302;28;20121;-81
2022/07/24 02:28:51;;;;;;;35.03;16.95;;;14.20;99.90;;;;;;8262654;28;20057;-80
2022/07/24 02:32:51;;;;;;;48.65;17.25;;;14.20;99.90;;;;;;8261967;28;20026;-81
2022/07/24 02:36:52;;;;;;;39.58;18.35;;;14.10;99.90;;;;;;8262515;28;20117;-81
2022/07/24 02:40:52;;;;;;;34.17;17.35;;;14.10;99.90;;;;;;8261805;28;20029;-81
2022/07/24 02:44:53;;;;;;;34.35;16.83;;;14.20;99.90;;;;;;8261320;28;20026;-81
2022/07/24 02:48:54;;;;;;;26.00;15.70;;;14.10;99.90;;;;;;8243442;28;20064;-81
2022/07/24 02:52:54;;;;;;;39.28;17.27;;;14.00;99.90;;;;;;8259611;28;20034;-80
2022/07/24 02:56:55;;;;;;;28.40;15.23;;;14.20;99.90;;;;;;8256116;28;20038;-80
2022/07/24 03:00:55;;;;;;;32.50;14.48;;;14.10;99.90;;;;;;8253734;28;20384;-80
2022/07/24 03:04:56;;;;;;;28.20;15.23;;;14.00;99.90;;;;;;8253187;28;20029;-80
2022/07/24 03:08:57;;;;;;;34.67;15.50;;;14.00;99.90;;;;;;8261194;28;20114;-81
2022/07/24 03:12:57;;;;;;;36.00;17.63;;;14.00;99.90;;;;;;8262426;28;20030;-80
2022/07/24 03:16:58;;;;;;;47.72;15.77;;;14.00;99.90;;;;;;8261189;28;20100;-80
2022/07/24 03:20:58;;;;;;;26.63;13.80;;;14.00;99.90;;;;;;8261875;28;20030;-80
2022/07/24 03:25:00;;;;;;;31.17;14.38;;;13.90;99.90;;;;;;8262136;28;20018;-82
2022/07/24 03:29:01;;;;;;;30.55;16.35;;;13.80;99.90;;;;;;8258996;28;20072;-81
2022/07/24 03:33:02;;;;;;;43.53;17.05;;;13.80;99.90;;;;;;8262244;28;20022;-81
2022/07/24 03:37:03;;;;;;;31.27;16.50;;;13.80;99.90;;;;;;8261532;28;20026;-81
2022/07/24 03:41:03;;;;;;;24.55;16.63;;;14.00;99.90;;;;;;8261679;28;20030;-82
2022/07/24 03:45:04;;;;;;;27.50;17.00;;;14.00;99.90;;;;;;8260591;28;20034;-80
2022/07/24 03:49:05;;;;;;;30.65;17.17;;;14.00;99.90;;;;;;8255270;28;20031;-81
2022/07/24 03:53:06;;;;;;;30.05;16.40;;;14.10;99.90;;;;;;8260077;28;20034;-81
2022/07/24 03:57:06;;;;;;;34.45;15.95;;;13.90;99.90;;;;;;8261773;28;20026;-82
2022/07/24 04:01:07;;;;;;;29.23;15.45;;;13.90;99.90;;;;;;8259953;28;20101;-80
2022/07/24 04:05:08;;;;;;;29.48;15.55;;;14.00;99.90;;;;;;8260818;28;20042;-81
2022/07/24 04:09:09;;;;;;;25.00;14.77;;;14.10;99.90;;;;;;8259972;28;20022;-80
2022/07/24 04:13:10;;;;;;;31.63;13.52;;;14.10;99.90;;;;;;8264289;28;20022;-80
2022/07/24 04:17:11;;;;;;;23.50;12.73;;;14.10;99.90;;;;;;8265596;28;20487;-87
2022/07/24 04:21:11;;;;;;;19.65;12.98;;;14.30;99.90;;;;;;8267241;28;20545;-87
2022/07/24 04:25:12;;;;;;;25.08;13.07;;;14.50;99.90;;;;;;8267481;28;20035;-88
2022/07/24 04:29:12;;;;;;;28.70;12.75;;;14.50;99.90;;;;;;8263969;28;20026;-88
2022/07/24 04:33:13;;;;;;;22.02;13.57;;;14.50;99.90;;;;;;8264869;28;20023;-87
2022/07/24 04:37:14;;;;;;;29.23;13.75;;;14.50;99.90;;;;;;8265176;28;20085;-88
2022/07/24 04:41:17;;;;;;;21.67;12.05;;;14.70;99.90;;;;;;8266226;28;20053;-80
2022/07/24 04:45:17;;;;;;;25.95;11.93;;;15.00;99.90;;;;;;8258080;28;20018;-80
2022/07/24 04:49:18;;;;;;;19.88;10.63;;;14.90;99.90;;;;;;8264455;28;20019;-81
2022/07/24 04:53:18;;;;;;;19.98;10.02;;;14.90;99.90;;;;;;8263568;28;20030;-80
2022/07/24 04:57:19;;;;;;;17.77;9.48;;;15.20;99.90;;;;;;8247066;28;20041;-80
2022/07/24 05:01:19;;;;;;;14.02;9.07;;;15.60;99.90;;;;;;8257088;28;20073;-80
2022/07/24 05:05:20;;;;;;;12.20;9.05;;;16.30;99.90;;;;;;8265140;28;20030;-81
2022/07/24 05:09:21;;;;;;;11.77;7.72;;;16.60;99.90;;;;;;8264050;28;20042;-81
2022/07/24 05:13:21;;;;;;;10.98;7.35;;;17.10;99.90;;;;;;8263510;28;20045;-80
2022/07/24 05:17:22;;;;;;;10.82;7.57;;;17.60;99.90;;;;;;8264481;28;20038;-80
2022/07/24 05:21:22;;;;;;;12.65;7.28;;;17.90;99.90;;;;;;8263958;28;20125;-78
2022/07/24 05:25:23;;;;;;;9.70;7.43;;;18.40;99.90;;;;;;8265640;28;20026;-78
2022/07/24 05:29:23;;;;;;;10.95;7.15;;;19.40;99.90;;;;;;8263728;28;20084;-77
2022/07/24 05:33:24;;;;;;;17.70;7.53;;;19.80;99.90;;;;;;8263403;28;20081;-81
2022/07/24 05:37:24;;;;;;;20.55;8.00;;;19.90;99.90;;;;;;8264388;28;20022;-80
2022/07/24 05:41:25;;;;;;;14.63;7.70;;;20.30;99.90;;;;;;8263756;28;20109;-81
2022/07/24 05:45:25;;;;;;;12.60;8.40;;;20.70;99.90;;;;;;8259301;28;20034;-80
2022/07/24 05:49:26;;;;;;;12.15;8.00;;;21.40;99.90;;;;;;8262738;28;20022;-80
2022/07/24 05:53:26;;;;;;;10.70;7.75;;;22.00;99.90;;;;;;8262087;28;20026;-80
2022/07/24 05:57:27;;;;;;;16.38;8.45;;;22.40;99.90;;;;;;8262288;28;20033;-81
2022/07/24 06:01:27;;;;;;;16.05;8.80;;;22.50;99.90;;;;;;8255803;28;20045;-81
2022/07/24 06:05:28;;;;;;;16.00;9.27;;;23.00;99.90;;;;;;8260272;28;20042;-78
2022/07/24 06:09:29;;;;;;;13.68;9.20;;;23.50;99.90;;;;;;8262296;28;20018;-78
2022/07/24 06:13:29;;;;;;;13.85;9.43;;;23.70;99.90;;;;;;8263370;28;20390;-78
2022/07/24 06:17:30;;;;;;;14.25;9.77;;;23.90;99.90;;;;;;8262698;28;20018;-78
2022/07/24 06:21:30;;;;;;;15.10;9.50;;;23.90;99.90;;;;;;8262238;28;20522;-80
2022/07/24 06:25:31;;;;;;;14.82;9.48;;;24.40;99.90;;;;;;8260386;28;20031;-78
2022/07/24 06:29:31;;;;;;;12.10;9.10;;;24.40;99.90;;;;;;8261704;28;20018;-78
2022/07/24 06:33:32;;;;;;;13.52;8.77;;;24.70;99.90;;;;;;8256854;28;20402;-78
2022/07/24 06:37:33;;;;;;;10.80;9.50;;;25.00;99.90;;;;;;8259029;28;20627;-79
2022/07/24 06:41:33;;;;;;;12.25;10.48;;;25.10;99.90;;;;;;8261975;28;20050;-79
2022/07/24 06:45:36;;;;;;;10.60;9.52;;;25.30;99.90;;;;;;8260548;28;20041;-79
2022/07/24 06:49:36;;;;;;;11.77;10.57;;;25.60;99.90;;;;;;8260307;28;20398;-78
2022/07/24 06:53:37;;;;;;;13.38;10.05;;;25.80;99.90;;;;;;8259052;28;20031;-79
2022/07/24 06:57:37;;;;;;;11.07;9.88;;;26.10;99.90;;;;;;8258417;28;20050;-79
2022/07/24 07:01:38;;;;;;;15.10;9.90;;;26.70;99.90;;;;;;8261023;28;20037;-79
2022/07/24 07:05:38;;;;;;;11.85;10.65;;;27.10;99.90;;;;;;8259968;28;20402;-79
2022/07/24 07:09:39;;;;;;;11.88;10.68;;;27.10;99.90;;;;;;8261278;28;20065;-79
2022/07/24 07:13:39;;;;;;;12.85;10.73;;;27.30;99.90;;;;;;8262719;28;20031;-80
2022/07/24 07:17:41;;;;;;;12.32;11.02;;;27.40;99.90;;;;;;8263539;28;20042;-79
2022/07/24 07:21:42;;;;;;;12.02;10.80;;;27.30;99.90;;;;;;8263036;28;20108;-79
2022/07/24 07:25:42;;;;;;;11.85;10.63;;;27.40;99.90;;;;;;8260573;28;20034;-80
2022/07/24 07:29:43;;;;;;;11.27;10.18;;;27.10;99.90;;;;;;8261913;28;20034;-79
2022/07/24 07:33:43;;;;;;;11.02;9.93;;;27.40;99.90;;;;;;8261594;28;20080;-79
2022/07/24 07:37:47;;;;;;;11.98;10.77;;;27.00;99.90;;;;;;8262856;28;20056;-79
2022/07/24 07:41:48;;;;;;;12.48;9.88;;;27.30;99.90;;;;;;8260503;28;20096;-80
2022/07/24 07:45:49;;;;;;;11.00;10.00;;;27.40;99.90;;;;;;8282771;28;20057;-79
2022/07/24 07:49:49;;;;;;;10.48;9.38;;;27.90;99.90;;;;;;8259118;28;20058;-80
2022/07/24 07:53:50;;;;;;;10.95;9.93;;;28.00;99.90;;;;;;8259264;28;20453;-80
2022/07/24 07:57:51;;;;;;;13.65;10.63;;;28.00;99.90;;;;;;8255426;28;20085;-79
2022/07/24 08:01:51;;;;;;;11.25;10.15;;;28.00;99.90;;;;;;8255423;28;20041;-79
2022/07/24 08:05:52;;;;;;;14.48;10.95;;;27.80;99.90;;;;;;8260214;28;20117;-79
2022/07/24 08:09:52;;;;;;;12.07;10.45;;;27.70;99.90;;;;;;8261104;28;20031;-80
2022/07/24 08:13:53;;;;;;;12.13;10.20;;;27.90;99.90;;;;;;8253821;28;20027;-80
2022/07/24 08:17:54;;;;;;;11.02;9.93;;;27.70;99.90;;;;;;8261020;28;20026;-79
2022/07/24 08:21:55;;;;;;;12.15;10.27;;;27.80;99.90;;;;;;8259395;28;20030;-79
2022/07/24 08:25:56;;;;;;;13.05;9.90;;;28.10;99.90;;;;;;8256932;28;20031;-79
2022/07/24 08:29:56;;;;;;;12.35;9.75;;;28.20;99.90;;;;;;8255961;28;20585;-79
2022/07/24 08:33:57;;;;;;;11.38;10.23;;;28.20;99.90;;;;;;8259300;28;20022;-79
2022/07/24 08:37:57;;;;;;;11.98;10.35;;;28.50;99.90;;;;;;8255393;28;20254;-79
2022/07/24 08:41:58;;;;;;;12.73;9.90;;;28.50;99.90;;;;;;8253797;28;20126;-78
2022/07/24 08:46:00;;;;;;;13.10;9.30;;;28.40;99.90;;;;;;8257083;28;20026;-78
2022/07/24 08:50:04;;;;;;;11.52;10.43;;;28.40;99.90;;;;;;8259454;28;20027;-78
2022/07/24 08:54:06;;;;;;;11.23;10.13;;;28.20;99.90;;;;;;8259750;22;20043;-82
2022/07/24 08:58:07;;;;;;;10.05;9.00;;;28.20;99.90;;;;;;8230330;28;20031;-82
2022/07/24 09:02:08;;;;;;;11.30;9.85;;;28.60;99.90;;;;;;8230178;28;20499;-82
2022/07/24 09:06:10;;;;;;;11.60;9.48;;;28.60;99.90;;;;;;8243100;28;20029;-82
2022/07/24 09:10:13;;;;;;;10.05;8.93;;;28.50;99.90;;;;;;8228080;28;20027;-83
2022/07/24 09:14:31;;;;;;;12.27;10.02;;;28.70;99.90;;;;;;8234779;28;20037;-81
2022/07/24 09:18:33;;;;;;;10.15;9.15;;;28.50;99.90;;;;;;8247766;28;20018;-84
2022/07/24 09:22:37;;;;;;;9.40;8.50;;;28.40;99.90;;;;;;8241617;28;20030;-83
2022/07/24 09:26:51;;;;;;;10.75;9.48;;;28.40;99.90;;;;;;8244373;28;20027;-84
2022/07/24 09:30:52;;;;;;;10.00;8.93;;;28.40;99.90;;;;;;8244078;28;20034;-85
2022/07/24 09:34:53;;;;;;;10.75;8.30;;;28.60;99.90;;;;;;8239420;28;20062;-83
2022/07/24 09:38:56;;;;;;;12.23;8.18;;;28.70;99.90;;;;;;8255116;28;20026;-83
2022/07/24 09:43:12;;;;;;;8.88;7.97;;;28.70;99.90;;;;;;8254923;28;20088;-85
2022/07/24 09:47:15;;;;;;;9.07;8.18;;;28.50;99.90;;;;;;8264451;28;20490;-84
2022/07/24 09:51:17;;;;;;;9.93;8.88;;;28.30;99.90;;;;;;8257434;28;20498;-83
2022/07/24 09:55:24;;;;;;;8.65;7.72;;;28.50;99.90;;;;;;8260762;28;20391;-84
2022/07/24 09:59:29;;;;;;;9.40;8.50;;;28.80;99.90;;;;;;8235517;28;20023;-83
2022/07/24 10:03:31;;;;;;;10.40;8.90;;;29.10;99.90;;;;;;8240791;28;20045;-82
2022/07/24 10:07:32;;;;;;;9.70;8.68;;;28.70;99.90;;;;;;8243201;28;20093;-84
2022/07/24 10:11:35;;;;;;;10.68;8.77;;;28.00;99.90;;;;;;8238900;28;20034;-82
2022/07/24 10:15:50;;;;;;;9.27;8.18;;;28.40;99.90;;;;;;8243122;28;20093;-82
2022/07/24 10:19:52;;;;;;;8.63;7.72;;;29.50;99.90;;;;;;8240894;28;20121;-82
2022/07/24 10:23:58;;;;;;;8.65;7.82;;;30.10;99.90;;;;;;8237311;28;20138;-82
2022/07/24 10:28:02;;;;;;;10.02;8.70;;;29.50;99.90;;;;;;8258474;28;20114;-82
2022/07/24 10:32:03;;;;;;;8.60;7.70;;;28.60;99.90;;;;;;8234312;28;20034;-83
2022/07/24 10:36:12;;;;;;;8.27;7.18;;;28.50;99.90;;;;;;8237020;28;20034;-84
2022/07/24 10:40:25;;;;;;;9.88;7.78;;;29.40;99.90;;;;;;8231125;28;20037;-82
2022/07/24 10:44:25;;;;;;;9.40;8.10;;;29.70;99.90;;;;;;8231419;28;20045;-81
2022/07/24 10:48:32;;;;;;;9.15;8.18;;;28.80;99.90;;;;;;8222557;28;20034;-82
2022/07/24 10:52:33;;;;;;;9.77;8.07;;;27.90;99.90;;;;;;8251212;28;20525;-81
2022/07/24 10:56:34;;;;;;;9.57;8.65;;;28.30;99.90;;;;;;8229332;28;20102;-81
2022/07/24 11:00:59;;;;;;;9.02;7.85;;;29.50;99.90;;;;;;8239959;28;20022;-81
2022/07/24 11:05:36;;;;;;;9.43;7.55;;;29.50;99.90;;;;;;8237588;28;20057;-83
2022/07/24 11:09:59;;;;;;;11.02;8.25;;;29.60;99.90;;;;;;8164682;28;20717;-84
2022/07/24 11:14:01;;;;;;;8.43;7.45;;;30.90;99.90;;;;;;8249517;28;20027;-84
2022/07/24 11:18:15;;;;;;;8.98;7.57;;;30.70;99.90;;;;;;8223642;28;20071;-83
2022/07/24 11:22:15;;;;;;;9.02;7.50;;;29.00;99.90;;;;;;8233305;28;20051;-85
2022/07/24 11:26:31;;;;;;;8.90;7.80;;;29.50;99.90;;;;;;8233142;28;20439;-84
2022/07/24 11:30:32;;;;;;;9.10;8.20;;;29.40;99.90;;;;;;8222128;28;20026;-82
2022/07/24 11:34:33;;;;;;;8.40;7.60;;;28.40;99.90;;;;;;8234555;28;20600;-83
2022/07/24 11:38:36;;;;;;;7.97;7.15;;;28.00;99.90;;;;;;8232520;28;20046;-83
2022/07/24 11:42:37;;;;;;;9.38;8.40;;;29.30;99.90;;;;;;8231876;28;20136;-83
2022/07/24 11:46:39;;;;;;;10.18;8.10;;;29.60;99.90;;;;;;8234099;28;20039;-84
2022/07/24 11:50:39;;;;;;;9.02;8.05;;;28.60;99.90;;;;;;8227209;28;20038;-84
2022/07/24 11:54:41;;;;;;;9.13;7.63;;;28.00;99.90;;;;;;8247839;28;20121;-84
2022/07/24 11:58:42;;;;;;;8.35;7.55;;;27.70;99.90;;;;;;8236839;28;20030;-84
2022/07/24 12:02:47;;;;;;;9.30;7.50;;;28.00;99.90;;;;;;8240140;28;20113;-83
2022/07/24 12:06:48;;;;;;;7.65;6.90;;;31.10;98.40;;;;;;8230046;28;20473;-85
2022/07/24 12:10:55;;;;;;;7.72;6.80;;;32.40;93.40;;;;;;8235328;28;20113;-84
2022/07/24 12:15:14;;;;;;;7.57;6.80;;;31.40;93.40;;;;;;8244292;28;20081;-83
2022/07/24 12:19:16;;;;;;;7.40;6.70;;;30.00;93.20;;;;;;8230515;28;20046;-84
2022/07/24 12:23:18;;;;;;;7.55;6.85;;;32.10;92.20;;;;;;8235223;28;20521;-84
2022/07/24 12:27:33;;;;;;;8.57;7.15;;;34.30;85.90;;;;;;8242709;28;20027;-84
2022/07/24 12:31:33;;;;;;;10.82;7.00;;;36.10;78.60;;;;;;8231512;28;20023;-83
2022/07/24 12:36:01;;;;;;;7.15;6.45;;;37.00;70.30;;;;;;8241961;28;20615;-83
2022/07/24 12:40:01;;;;;;;7.38;6.68;;;36.80;68.90;;;;;;8241580;28;20110;-82
2022/07/24 12:44:05;;;;;;;7.00;6.30;;;37.60;63.30;;;;;;8248142;28;20027;-83
2022/07/24 12:48:06;;;;;;;7.28;6.50;;;38.50;57.10;;;;;;8237332;28;20517;-83
2022/07/24 12:52:23;;;;;;;7.32;6.63;;;39.80;56.00;;;;;;8248277;28;20438;-83
2022/07/24 12:56:32;;;;;;;7.57;6.75;;;39.00;51.30;;;;;;8222823;28;20037;-83
2022/07/24 13:00:33;;;;;;;7.53;6.82;;;34.40;60.40;;;;;;8231839;28;20027;-82
2022/07/24 13:04:41;;;;;;;7.68;6.97;;;33.00;64.50;;;;;;8230406;28;20410;-83
2022/07/24 13:08:41;;;;;;;7.57;6.60;;;33.20;67.60;;;;;;8236820;28;20093;-83
2022/07/24 13:12:42;;;;;;;7.53;6.25;;;32.00;70.30;;;;;;8243019;28;20023;-83
2022/07/24 13:16:45;;;;;;;7.88;6.68;;;33.80;62.30;;;;;;8242404;28;20026;-83
2022/07/24 13:20:45;;;;;;;7.10;6.43;;;33.20;66.00;;;;;;8244389;28;20651;-83
2022/07/24 13:24:46;;;;;;;7.82;7.10;;;32.40;68.00;;;;;;8237150;28;20026;-83
2022/07/24 13:28:47;;;;;;;12.38;7.38;;;31.10;75.40;;;;;;8235070;28;20511;-82
2022/07/24 13:32:47;;;;;;;9.63;7.32;;;31.60;80.60;;;;;;8245225;28;20486;-84
2022/07/24 13:36:48;;;;;;;8.02;6.55;;;34.40;71.60;;;;;;8243873;28;20031;-83
2022/07/24 13:40:49;;;;;;;7.72;6.93;;;36.50;59.70;;;;;;8250540;28;20035;-82
2022/07/24 13:44:49;;;;;;;8.18;6.90;;;36.10;58.10;;;;;;8235609;28;20096;-83
2022/07/24 13:48:51;;;;;;;7.10;6.43;;;34.20;68.90;;;;;;8235057;28;20030;-83
2022/07/24 13:52:52;;;;;;;7.50;6.70;;;35.10;64.00;;;;;;8243609;28;20059;-83
2022/07/24 13:56:52;;;;;;;7.07;6.38;;;36.80;56.40;;;;;;8233739;28;20046;-84
2022/07/24 14:00:53;;;;;;;6.93;6.20;;;36.80;58.10;;;;;;8262240;28;20026;-83
2022/07/24 14:04:53;;;;;;;6.97;6.38;;;37.50;57.10;;;;;;8257202;28;20031;-84
2022/07/24 14:08:54;;;;;;;7.35;6.47;;;37.90;53.90;;;;;;8234133;28;20495;-83
2022/07/24 14:12:54;;;;;;;7.10;6.40;;;38.20;50.70;;;;;;8232166;28;20098;-84
2022/07/24 14:16:56;;;;;;;7.18;6.47;;;36.90;54.90;;;;;;8236338;28;20037;-83
2022/07/24 14:20:56;;;;;;;7.70;6.57;;;34.70;55.80;;;;;;8231308;28;20093;-83
2022/07/24 14:24:57;;;;;;;7.50;6.72;;;32.40;62.80;;;;;;8237883;28;20491;-83
2022/07/24 14:28:57;;;;;;;9.32;6.93;;;32.00;63.50;;;;;;8236272;28;20554;-83
2022/07/24 14:32:58;;;;;;;7.45;6.60;;;34.70;63.30;;;;;;8231008;28;20031;-84
2022/07/24 14:36:59;;;;;;;6.95;6.20;;;34.30;61.60;;;;;;8239520;28;20058;-84
2022/07/24 14:40:59;;;;;;;6.70;6.10;;;35.70;56.30;;;;;;8243034;28;20034;-84
2022/07/24 14:45:00;;;;;;;7.25;6.55;;;38.70;52.80;;;;;;8228118;28;20026;-84
2022/07/24 14:49:01;;;;;;;8.30;6.25;;;38.50;49.90;;;;;;8259319;28;20038;-82
2022/07/24 14:53:01;;;;;;;6.57;5.97;;;38.80;52.00;;;;;;8239745;28;20113;-83
2022/07/24 14:57:03;;;;;;;6.38;5.72;;;38.80;48.30;;;;;;8250897;28;20037;-83
2022/07/24 15:01:04;;;;;;;6.57;5.97;;;40.70;49.30;;;;;;8232595;28;20031;-82
2022/07/24 15:05:05;;;;;;;6.25;5.65;;;40.90;44.20;;;;;;8273313;23;20049;-80
2022/07/24 15:09:06;;;;;;;6.60;6.00;;;40.50;44.90;;;;;;8284818;28;20100;-80
2022/07/24 15:13:06;;;;;;;11.35;5.72;;;41.20;44.30;;;;;;8288733;28;20076;-79
2022/07/24 15:17:07;;;;;;;6.78;6.03;;;41.20;44.50;;;;;;8293593;28;20483;-80
2022/07/24 15:21:07;;;;;;;7.60;5.72;;;39.10;47.80;;;;;;8294977;28;20030;-81
2022/07/24 15:25:08;;;;;;;6.75;6.10;;;37.50;48.90;;;;;;8290963;28;20156;-80
2022/07/24 15:29:09;;;;;;;6.55;5.97;;;39.50;45.60;;;;;;8294609;28;20030;-81
2022/07/24 15:33:09;;;;;;;6.88;6.28;;;41.70;42.40;;;;;;8295026;28;20028;-81
2022/07/24 15:37:10;;;;;;;7.38;6.13;;;39.70;44.10;;;;;;8293076;28;20025;-80
2022/07/24 15:41:10;;;;;;;7.93;5.82;;;40.40;46.80;;;;;;8292571;28;20029;-80
2022/07/24 15:45:11;;;;;;;6.55;5.95;;;39.20;44.90;;;;;;8293130;28;20057;-81
2022/07/24 15:49:11;;;;;;;6.22;5.63;;;36.90;50.80;;;;;;8288032;28;20510;-81
2022/07/24 15:53:12;;;;;;;7.47;6.78;;;33.20;56.70;;;;;;8294622;28;20026;-79
2022/07/24 15:57:13;;;;;;;8.32;6.47;;;31.40;64.20;;;;;;8295464;28;20466;-81
2022/07/24 16:01:13;;;;;;;7.30;6.60;;;30.60;66.00;;;;;;8290625;28;20054;-80
2022/07/24 16:05:15;;;;;;;7.53;6.85;;;30.20;65.60;;;;;;8295086;28;20095;-80
2022/07/24 16:09:16;;;;;;;7.82;6.93;;;29.80;64.00;;;;;;8300980;28;20026;-80
2022/07/24 16:13:16;;;;;;;8.15;6.63;;;29.70;67.70;;;;;;8300338;28;20053;-79
2022/07/24 16:17:18;;;;;;;7.25;6.65;;;29.80;69.10;;;;;;8295891;28;20485;-79
2022/07/24 16:21:19;;;;;;;9.98;7.22;;;29.80;66.10;;;;;;8297552;28;20059;-80
2022/07/24 16:25:19;;;;;;;9.43;6.68;;;29.80;71.20;;;;;;8301364;28;20024;-79
2022/07/24 16:29:20;;;;;;;7.38;6.50;;;29.60;71.20;;;;;;8299346;28;20030;-79
2022/07/24 16:33:20;;;;;;;7.35;6.65;;;29.40;70.60;;;;;;8298678;28;20068;-78
2022/07/24 16:37:21;;;;;;;7.13;6.43;;;29.60;69.00;;;;;;8296272;28;20037;-79
2022/07/24 16:41:21;;;;;;;21.65;6.68;;;30.90;67.70;;;;;;8298267;28;20120;-80
2022/07/24 16:45:22;;;;;;;6.78;6.15;;;31.30;64.30;;;;;;8292948;28;20034;-79
2022/07/24 16:49:23;;;;;;;8.38;6.30;;;31.20;64.10;;;;;;8297740;28;20042;-79
2022/07/24 16:53:23;;;;;;;6.80;6.10;;;31.20;63.80;;;;;;8297655;28;20359;-80
2022/07/24 16:57:24;;;;;;;7.78;6.20;;;31.00;68.40;;;;;;8297762;28;20650;-78
2022/07/24 17:01:24;;;;;;;7.70;6.82;;;30.40;66.10;;;;;;8299121;28;20088;-80
2022/07/24 17:05:25;;;;;;;8.75;6.38;;;29.90;67.30;;;;;;8295526;28;20096;-79
2022/07/24 17:09:26;;;;;;;7.50;6.70;;;29.30;72.60;;;;;;8295535;28;20037;-78
2022/07/24 17:13:26;;;;;;;9.48;7.10;;;28.80;70.40;;;;;;8297017;28;20018;-80
2022/07/24 17:17:57;;;;;;;6.97;6.38;;;28.40;76.90;;;;;;8297665;28;20030;-80
2022/07/24 17:21:57;;;;;;;7.38;6.57;;;28.00;77.80;;;;;;8295864;28;20050;-79
2022/07/24 17:25:58;;;;;;;7.93;6.53;;;27.80;78.60;;;;;;8296532;28;20085;-79
2022/07/24 17:29:58;;;;;;;8.32;7.13;;;27.40;81.50;;;;;;8295354;28;20077;-79
2022/07/24 17:33:59;;;;;;;8.80;6.93;;;27.10;85.20;;;;;;8295474;28;20034;-79
2022/07/24 17:37:59;;;;;;;7.20;6.50;;;26.70;88.30;;;;;;8291726;28;20067;-80
2022/07/24 17:42:00;;;;;;;7.07;6.38;;;26.40;86.80;;;;;;8290824;28;20394;-79
2022/07/24 17:46:01;;;;;;;10.73;6.88;;;26.30;87.30;;;;;;8288784;28;20427;-79
2022/07/24 17:50:03;;;;;;;8.25;7.05;;;26.00;89.60;;;;;;8292596;28;20029;-79
2022/07/24 17:54:04;;;;;;;10.07;6.80;;;25.90;89.90;;;;;;8293477;28;20025;-79
2022/07/24 17:58:04;;;;;;;7.50;6.65;;;26.00;89.70;;;;;;8294316;28;20029;-79
2022/07/24 18:02:05;;;;;;;7.70;6.90;;;26.00;88.20;;;;;;8288750;28;20024;-80
2022/07/24 18:06:06;;;;;;;7.90;7.10;;;25.80;88.50;;;;;;8295902;28;20030;-79
2022/07/24 18:10:09;;;;;;;7.38;6.68;;;25.60;90.50;;;;;;8291938;28;20022;-79
2022/07/24 18:14:10;;;;;;;7.50;6.70;;;25.30;91.30;;;;;;8291840;28;20026;-79
2022/07/24 18:18:10;;;;;;;8.35;6.63;;;25.20;92.60;;;;;;8289691;28;20045;-80
2022/07/24 18:22:12;;;;;;;7.53;6.50;;;24.90;92.10;;;;;;8291768;28;20105;-79
2022/07/24 18:26:12;;;;;;;8.77;6.88;;;24.90;93.00;;;;;;8290235;28;20025;-79
2022/07/24 18:30:16;;;;;;;17.63;8.30;;;24.80;93.50;;;;;;8289000;28;20533;-80
2022/07/24 18:34:19;;;;;;;10.45;6.93;;;24.70;95.40;;;;;;8286996;28;20526;-81
2022/07/24 18:38:19;;;;;;;8.85;6.95;;;24.60;96.60;;;;;;8286458;28;20029;-80
2022/07/24 18:42:20;;;;;;;8.68;7.22;;;24.40;96.50;;;;;;8289596;28;20034;-82
2022/07/24 18:46:21;;;;;;;8.38;7.15;;;24.20;97.60;;;;;;8286845;28;20128;-79
2022/07/24 18:50:21;;;;;;;7.97;7.18;;;24.00;99.60;;;;;;8291474;28;20022;-79
2022/07/24 18:54:22;;;;;;;7.70;7.00;;;23.80;99.90;;;;;;8290796;28;20030;-79
2022/07/24 18:58:23;;;;;;;8.93;7.55;;;23.50;99.90;;;;;;8290493;28;20053;-80
2022/07/24 19:02:24;;;;;;;8.85;7.53;;;23.30;99.90;;;;;;8288098;28;21020;-79
2022/07/24 19:06:24;;;;;;;9.38;7.90;;;23.10;99.90;;;;;;8284212;28;20064;-79
2022/07/24 19:10:25;;;;;;;9.30;8.13;;;22.90;99.90;;;;;;8284327;28;20038;-80
2022/07/24 19:14:25;;;;;;;11.07;7.88;;;22.80;99.90;;;;;;8282173;28;20116;-79
2022/07/24 19:18:26;;;;;;;9.18;8.07;;;22.40;99.90;;;;;;8279833;28;20022;-81
2022/07/24 19:22:26;;;;;;;9.02;8.02;;;22.20;99.90;;;;;;8283085;28;20052;-80
2022/07/24 19:26:27;;;;;;;10.15;9.15;;;22.00;99.90;;;;;;8282116;28;20037;-80
2022/07/24 19:30:28;;;;;;;9.85;8.82;;;22.00;99.90;;;;;;8280084;28;20025;-79
2022/07/24 19:34:28;;;;;;;13.80;9.25;;;21.90;99.90;;;;;;8280866;28;20032;-79
2022/07/24 19:38:29;;;;;;;9.43;8.43;;;21.60;99.90;;;;;;8283022;28;20043;-79
2022/07/24 19:42:29;;;;;;;11.88;9.00;;;21.60;99.90;;;;;;8281520;28;20038;-80
2022/07/24 19:46:30;;;;;;;9.27;8.38;;;21.40;99.90;;;;;;8283178;28;20116;-80
2022/07/24 19:50:31;;;;;;;9.70;8.70;;;21.30;99.90;;;;;;8285282;28;20499;-80
2022/07/24 19:54:31;;;;;;;10.07;8.95;;;21.10;99.90;;;;;;8279079;28;20517;-81
2022/07/24 19:58:32;;;;;;;9.93;8.73;;;20.90;99.90;;;;;;8288528;28;20032;-79
2022/07/24 20:02:32;;;;;;;9.93;8.45;;;20.80;99.90;;;;;;8286742;28;20022;-79
2022/07/24 20:06:33;;;;;;;9.98;8.93;;;20.60;99.90;;;;;;8288217;28;20029;-79
2022/07/24 20:10:33;;;;;;;9.20;8.30;;;20.40;99.90;;;;;;8292764;28;20037;-80
2022/07/24 20:14:34;;;;;;;10.65;9.55;;;20.20;99.90;;;;;;8290145;28;20076;-81
2022/07/24 20:18:34;;;;;;;11.10;9.05;;;20.00;99.90;;;;;;8292791;28;20029;-81
2022/07/24 20:22:35;;;;;;;9.75;8.75;;;19.90;99.90;;;;;;8289837;28;20033;-80
2022/07/24 20:26:37;;;;;;;10.50;9.50;;;19.90;99.90;;;;;;8292475;28;20032;-80
2022/07/24 20:30:38;;;;;;;11.18;9.27;;;19.80;99.90;;;;;;8292488;28;20022;-81
2022/07/24 20:34:38;;;;;;;10.43;9.32;;;19.70;99.90;;;;;;8294386;28;20093;-81
2022/07/24 20:38:40;;;;;;;10.13;9.13;;;19.60;99.90;;;;;;8294454;28;20029;-81
2022/07/24 20:42:41;;;;;;;12.40;9.88;;;19.70;99.90;;;;;;8292923;28;20056;-80